createdAt,value
2019-04-04T10:32:45.769Z,32.80
2019-04-04T10:33:45.775Z,32.57
2019-04-04T10:34:45.745Z,32.31
2019-04-04T10:35:45.737Z,31.90
2019-04-04T10:36:45.732Z,31.39
2019-04-04T10:37:45.719Z,30.89
2019-04-04T10:38:45.703Z,30.95
2019-04-04T10:39:45.693Z,30.79
2019-04-04T10:40:45.686Z,30.70
2019-04-04T10:41:45.679Z,31.30
2019-04-04T10:42:45.662Z,31.81
2019-04-04T10:43:45.650Z,32.35
2019-04-04T10:44:45.640Z,32.30
2019-04-04T10:45:45.631Z,32.27
2019-04-04T10:46:45.618Z,32.25
2019-04-04T10:47:45.611Z,31.48
2019-04-04T10:48:45.600Z,31.19
2019-04-04T10:49:45.586Z,31.39
2019-04-04T10:50:45.576Z,31.44
2019-04-04T10:51:45.568Z,31.44
2019-04-04T10:52:45.564Z,31.44
2019-04-04T10:53:45.545Z,31.63
2019-04-04T10:54:45.537Z,31.85
2019-04-04T10:55:45.522Z,32.41
2019-04-04T10:56:45.516Z,32.38
2019-04-04T10:57:45.502Z,32.50
2019-04-04T10:58:45.492Z,32.73
2019-04-04T10:59:45.485Z,32.25
2019-04-04T11:00:45.470Z,32.08
2019-04-04T11:01:45.463Z,32.10
2019-04-04T11:02:45.452Z,32.35
2019-04-04T11:03:45.447Z,32.38
2019-04-04T11:04:45.432Z,32.47
2019-04-04T11:05:45.425Z,32.42
2019-04-04T11:06:45.415Z,32.41
2019-04-04T11:07:45.428Z,32.52
2019-04-04T11:08:45.424Z,32.25
2019-04-04T11:09:45.509Z,32.13
2019-04-04T11:10:45.449Z,32.03
2019-04-04T11:11:45.373Z,31.97
2019-04-04T11:12:45.375Z,32.23
2019-04-04T11:13:45.376Z,32.47
2019-04-04T11:14:45.327Z,32.55
2019-04-04T11:15:45.314Z,32.68
2019-04-04T11:16:45.307Z,32.57
2019-04-04T11:17:45.304Z,32.68
2019-04-04T11:18:45.285Z,33.12
2019-04-04T11:19:45.276Z,33.01
2019-04-04T11:20:45.267Z,32.25
2019-04-04T11:21:45.255Z,31.98
2019-04-04T11:22:45.249Z,31.89
2019-04-04T11:23:45.240Z,32.07
2019-04-04T11:24:45.268Z,32.20
2019-04-04T11:25:45.217Z,31.89
2019-04-04T11:26:45.211Z,31.98
2019-04-04T11:27:45.194Z,32.23
2019-04-04T11:28:45.184Z,32.65
2019-04-04T11:29:45.170Z,33.17
2019-04-04T11:30:45.160Z,33.04
2019-04-04T11:31:45.148Z,32.88
2019-04-04T11:32:45.139Z,32.52
2019-04-04T11:33:45.357Z,32.07
2019-04-04T11:34:53.010Z,31.86
2019-04-04T11:36:09.583Z,32.04
2019-04-04T11:37:09.579Z,32.12
2019-04-04T11:38:09.565Z,31.78
2019-04-04T11:39:09.557Z,31.85
2019-04-04T11:40:09.538Z,31.76
2019-04-04T11:41:09.544Z,31.57
2019-04-04T11:42:09.523Z,31.70
2019-04-04T11:43:09.508Z,32.07
2019-04-04T11:44:09.497Z,32.08
2019-04-04T11:45:09.491Z,31.97
2019-04-04T11:46:09.477Z,31.76
2019-04-04T11:47:09.473Z,31.88
2019-04-04T11:48:09.454Z,32.12
2019-04-04T11:49:09.449Z,32.32
2019-04-04T11:50:09.434Z,32.79
2019-04-04T11:51:09.422Z,32.77
2019-04-04T11:52:09.410Z,32.34
2019-04-04T11:53:09.638Z,32.12
2019-04-04T11:54:09.439Z,31.76
2019-04-04T11:55:09.413Z,31.27
2019-04-04T11:56:09.379Z,31.38
2019-04-04T11:57:09.400Z,31.54
2019-04-04T11:58:09.346Z,31.70
2019-04-04T11:59:09.377Z,31.52
2019-04-04T12:00:09.365Z,31.76
2019-04-04T12:01:09.321Z,31.48
2019-04-04T12:02:09.312Z,31.19
2019-04-04T12:03:09.295Z,30.96
2019-04-04T12:04:09.284Z,30.88
2019-04-04T12:05:09.485Z,30.42
2019-04-04T12:06:09.270Z,30.11
2019-04-04T12:07:09.258Z,29.76
2019-04-04T12:08:09.241Z,29.57
2019-04-04T12:09:09.234Z,29.42
2019-04-04T12:10:09.224Z,29.64
2019-04-04T12:11:09.211Z,29.43
2019-04-04T12:12:09.203Z,29.28
2019-04-04T12:13:09.187Z,29.53
2019-04-04T12:14:09.175Z,29.51
2019-04-04T12:15:09.172Z,29.58
2019-04-04T12:16:09.154Z,29.57
2019-04-04T12:17:09.151Z,29.55
2019-04-04T12:18:09.139Z,29.35
2019-04-04T12:19:09.123Z,29.02
2019-04-04T12:20:09.112Z,28.89
2019-04-04T12:21:09.103Z,28.94
2019-04-04T12:22:11.652Z,28.91
2019-04-04T12:23:09.080Z,29.09
2019-04-04T12:24:09.068Z,29.18
2019-04-04T12:25:09.057Z,29.32
2019-04-04T12:26:09.050Z,29.48
2019-04-04T12:27:09.038Z,29.40
2019-04-04T12:28:09.024Z,29.26
2019-04-04T12:29:09.012Z,29.26
2019-04-04T12:30:09.018Z,29.01
2019-04-04T12:31:08.993Z,28.96
2019-04-04T12:32:08.981Z,29.11
2019-04-04T12:33:08.980Z,29.16
2019-04-04T12:34:08.963Z,29.20
2019-04-04T12:35:08.948Z,29.38
2019-04-04T12:36:08.936Z,29.28
2019-04-04T12:37:08.927Z,29.43
2019-04-04T12:38:08.917Z,29.77
2019-04-04T12:39:08.903Z,29.77
2019-04-04T12:40:19.881Z,29.62
2019-04-04T12:41:33.396Z,29.93
2019-04-04T12:42:33.393Z,30.21
2019-04-04T12:43:33.375Z,30.29
2019-04-04T12:44:33.364Z,30.29
2019-04-04T12:45:33.355Z,30.29
2019-04-04T12:46:33.340Z,30.37
2019-04-04T12:47:33.333Z,30.32
2019-04-04T12:48:33.322Z,30.33
2019-04-04T12:49:33.323Z,30.36
2019-04-04T12:50:33.311Z,30.55
2019-04-04T12:51:33.288Z,30.50
2019-04-04T12:52:33.284Z,30.35
2019-04-04T12:53:33.269Z,30.05
2019-04-04T12:54:33.256Z,29.95
2019-04-04T12:55:33.246Z,29.99
2019-04-04T12:56:33.235Z,29.96
2019-04-04T12:57:33.224Z,29.87
2019-04-04T12:58:33.223Z,30.00
2019-04-04T12:59:33.201Z,29.83
2019-04-04T13:00:33.191Z,29.77
2019-04-04T13:01:33.185Z,29.57
2019-04-04T13:02:33.169Z,29.57
2019-04-04T13:03:33.231Z,29.58
2019-04-04T13:04:33.149Z,29.45
2019-04-04T13:05:33.142Z,29.46
2019-04-04T13:06:33.128Z,29.27
2019-04-04T13:07:33.116Z,29.18
2019-04-04T13:08:35.108Z,29.17
2019-04-04T13:09:33.094Z,29.14
2019-04-04T13:10:33.692Z,28.89
2019-04-04T13:11:33.085Z,28.66
2019-04-04T13:12:33.072Z,28.54
2019-04-04T13:13:33.061Z,28.42
2019-04-04T13:14:33.042Z,28.26
2019-04-04T13:15:33.039Z,28.28
2019-04-04T13:16:33.023Z,28.54
2019-04-04T13:17:33.012Z,28.54
2019-04-04T13:18:33.001Z,28.62
2019-04-04T13:19:32.988Z,28.72
2019-04-04T13:20:32.985Z,28.57
2019-04-04T13:21:32.971Z,28.62
2019-04-04T13:22:32.958Z,28.32
2019-04-04T13:23:32.948Z,28.44
2019-04-04T13:24:32.936Z,28.32
2019-04-04T13:25:32.928Z,28.00
2019-04-04T13:26:32.922Z,27.79
2019-04-04T13:27:32.906Z,27.65
2019-04-04T13:28:32.896Z,27.52
2019-04-04T13:29:32.891Z,27.44
2019-04-04T13:30:32.872Z,27.26
2019-04-04T13:31:32.861Z,27.16
2019-04-04T13:32:32.850Z,27.17
2019-04-04T13:33:32.840Z,27.13
2019-04-04T13:34:32.864Z,26.82
2019-04-04T13:35:32.818Z,26.67
2019-04-04T13:36:32.813Z,26.56
2019-04-04T13:37:32.795Z,26.15
2019-04-04T13:38:32.788Z,26.03
2019-04-04T13:39:32.782Z,26.11
2019-04-04T13:40:44.434Z,26.07
2019-04-04T13:41:33.773Z,26.10
2019-04-04T13:42:32.747Z,26.01
2019-04-04T13:43:32.733Z,25.88
2019-04-04T13:44:32.722Z,25.77
2019-04-04T13:45:32.711Z,25.82
2019-04-04T13:46:32.698Z,25.74
2019-04-04T13:47:32.718Z,25.75
2019-04-04T13:48:32.715Z,25.77
2019-04-04T13:49:32.671Z,25.81
2019-04-04T13:50:32.664Z,25.59
2019-04-04T13:51:32.643Z,25.67
2019-04-04T13:52:32.633Z,25.61
2019-04-04T13:53:32.622Z,25.61
2019-04-04T13:54:32.624Z,25.63
2019-04-04T13:55:32.606Z,25.59
2019-04-04T13:56:32.588Z,25.58
2019-04-04T13:57:32.581Z,25.48
2019-04-04T13:58:32.567Z,25.30
2019-04-04T13:59:32.559Z,25.26
2019-04-04T14:00:32.550Z,25.03
2019-04-04T14:01:32.541Z,25.00
2019-04-04T14:02:32.531Z,24.99
2019-04-04T14:03:32.514Z,25.03
2019-04-04T14:04:32.503Z,24.98
2019-04-04T14:05:32.492Z,24.45
2019-04-04T14:06:32.482Z,24.31
2019-04-04T14:07:32.478Z,24.40
2019-04-04T14:08:32.460Z,24.48
2019-04-04T14:09:32.450Z,24.58
2019-04-04T14:10:32.441Z,24.58
2019-04-04T14:11:32.429Z,24.56
2019-04-04T14:12:32.419Z,24.56
2019-04-04T14:13:32.416Z,24.48
2019-04-04T14:14:32.397Z,24.44
2019-04-04T14:15:32.386Z,24.47
2019-04-04T14:16:32.374Z,24.48
2019-04-04T14:17:32.369Z,24.45
2019-04-04T14:18:39.594Z,24.55
2019-04-04T14:19:56.816Z,24.59
2019-04-04T14:21:03.538Z,24.55
2019-04-04T14:21:57.817Z,24.58
2019-04-04T14:22:56.788Z,24.59
2019-04-04T14:23:57.123Z,24.58
2019-04-04T14:24:56.769Z,24.43
2019-04-04T14:25:59.622Z,24.65
2019-04-04T14:26:56.744Z,24.52
2019-04-04T14:27:58.220Z,24.59
2019-04-04T14:28:56.721Z,24.55
2019-04-04T14:29:56.708Z,24.53
2019-04-04T14:30:56.697Z,24.38
2019-04-04T14:31:56.690Z,24.38
2019-04-04T14:32:56.676Z,24.34
2019-04-04T14:33:56.664Z,24.13
2019-04-04T14:34:56.652Z,24.23
2019-04-04T14:35:56.645Z,24.23
2019-04-04T14:36:56.636Z,24.26
2019-04-04T14:37:56.628Z,24.21
2019-04-04T14:38:56.623Z,24.08
2019-04-04T14:39:56.603Z,24.16
2019-04-04T14:40:56.589Z,23.99
2019-04-04T14:41:56.579Z,23.93
2019-04-04T14:42:56.564Z,23.85
2019-04-04T14:43:59.967Z,23.84
2019-04-04T14:44:56.547Z,23.93
2019-04-04T14:45:56.532Z,23.87
2019-04-04T14:46:56.522Z,23.93
2019-04-04T14:47:56.515Z,24.01
2019-04-04T14:48:56.503Z,23.96
2019-04-04T14:49:56.489Z,24.04
2019-04-04T14:50:56.479Z,24.06
2019-04-04T14:51:56.476Z,23.97
2019-04-04T14:52:56.489Z,23.83
2019-04-04T14:53:57.979Z,23.66
2019-04-04T14:54:56.440Z,23.55
2019-04-04T14:55:56.433Z,23.53
2019-04-04T14:56:56.421Z,23.41
2019-04-04T14:57:56.401Z,23.60
2019-04-04T14:58:56.389Z,23.62
2019-04-04T14:59:56.390Z,23.62
2019-04-04T15:00:56.370Z,23.58
2019-04-04T15:01:56.360Z,23.58
2019-04-04T15:02:56.347Z,23.60
2019-04-04T15:03:56.335Z,23.65
2019-04-04T15:04:56.326Z,23.65
2019-04-04T15:05:56.364Z,23.59
2019-04-04T15:06:56.304Z,23.59
2019-04-04T15:07:56.301Z,23.63
2019-04-04T15:08:56.281Z,23.70
2019-04-04T15:09:56.274Z,23.62
2019-04-04T15:10:56.257Z,23.55
2019-04-04T15:11:56.245Z,23.45
2019-04-04T15:12:56.251Z,23.53
2019-04-04T15:13:56.249Z,23.51
2019-04-04T15:14:56.253Z,23.50
2019-04-04T15:15:56.208Z,23.58
2019-04-04T15:16:56.198Z,23.58
2019-04-04T15:17:56.199Z,23.45
2019-04-04T15:18:56.205Z,23.45
2019-04-04T15:19:56.214Z,23.47
2019-04-04T15:20:57.007Z,23.44
2019-04-04T15:21:56.135Z,23.33
2019-04-04T15:22:56.124Z,23.35
2019-04-04T15:23:56.119Z,23.48
2019-04-04T15:24:56.106Z,23.33
2019-04-04T15:25:56.090Z,23.48
2019-04-04T15:26:56.090Z,23.40
2019-04-04T15:27:56.070Z,23.35
2019-04-04T15:28:56.058Z,23.35
2019-04-04T15:29:56.049Z,23.22
2019-04-04T15:30:56.034Z,23.18
2019-04-04T15:31:56.019Z,23.17
2019-04-04T15:32:56.012Z,23.22
2019-04-04T15:33:56.000Z,23.23
2019-04-04T15:34:55.984Z,23.22
2019-04-04T15:35:55.985Z,23.21
2019-04-04T15:36:55.965Z,23.26
2019-04-04T15:37:55.951Z,23.25
2019-04-04T15:38:55.940Z,23.18
2019-04-04T15:39:55.933Z,23.10
2019-04-04T15:40:55.923Z,23.08
2019-04-04T15:41:55.905Z,23.07
2019-04-04T15:42:55.897Z,23.10
2019-04-04T15:43:55.884Z,23.07
2019-04-04T15:44:55.877Z,23.22
2019-04-04T15:45:55.861Z,23.06
2019-04-04T15:46:55.850Z,22.99
2019-04-04T15:47:55.842Z,22.93
2019-04-04T15:48:55.840Z,22.92
2019-04-04T15:49:55.821Z,22.89
2019-04-04T15:50:55.806Z,22.91
2019-04-04T15:51:55.798Z,22.92
2019-04-04T15:52:55.784Z,22.96
2019-04-04T15:53:55.781Z,22.96
2019-04-04T15:54:55.762Z,23.01
2019-04-04T15:55:55.751Z,22.99
2019-04-04T15:56:55.755Z,23.10
2019-04-04T15:57:55.734Z,23.18
2019-04-04T15:58:55.723Z,23.18
2019-04-04T15:59:55.702Z,23.28
2019-04-04T16:00:55.698Z,23.30
2019-04-04T16:01:55.680Z,23.29
2019-04-04T16:02:55.671Z,23.22
2019-04-04T16:03:55.664Z,23.29
2019-04-04T16:04:55.649Z,23.14
2019-04-04T16:05:55.639Z,23.22
2019-04-04T16:06:55.628Z,23.23
2019-04-04T16:07:55.614Z,23.23
2019-04-04T16:08:55.603Z,23.23
2019-04-04T16:09:55.593Z,23.14
2019-04-04T16:10:55.582Z,23.21
2019-04-04T16:11:55.571Z,23.21
2019-04-04T16:12:55.568Z,23.29
2019-04-04T16:13:55.548Z,23.25
2019-04-04T16:14:55.548Z,23.22
2019-04-04T16:15:55.545Z,23.14
2019-04-04T16:16:55.515Z,23.23
2019-04-04T16:17:55.503Z,23.25
2019-04-04T16:18:55.496Z,23.32
2019-04-04T16:19:55.490Z,23.33
2019-04-04T16:20:55.475Z,23.30
2019-04-04T16:21:55.465Z,23.29
2019-04-04T16:22:55.452Z,23.36
2019-04-04T16:23:55.439Z,23.15
2019-04-04T16:24:55.425Z,23.22
2019-04-04T16:25:55.416Z,23.18
2019-04-04T16:26:55.407Z,23.25
2019-04-04T16:27:55.398Z,23.32
2019-04-04T16:28:55.383Z,23.36
2019-04-04T16:29:55.372Z,23.32
2019-04-04T16:30:55.365Z,23.28
2019-04-04T16:31:55.351Z,23.36
2019-04-04T16:32:55.354Z,23.25
2019-04-04T16:33:55.327Z,23.33
2019-04-04T16:34:55.320Z,23.14
2019-04-04T16:35:55.314Z,23.08
2019-04-04T16:36:55.294Z,23.10
2019-04-04T16:37:55.292Z,22.98
2019-04-04T16:38:55.277Z,22.92
2019-04-04T16:40:07.898Z,22.98
2019-04-04T16:41:19.731Z,22.89
2019-04-04T16:42:19.726Z,22.86
2019-04-04T16:43:19.708Z,22.85
2019-04-04T16:44:19.696Z,22.77
2019-04-04T16:45:19.688Z,22.77
2019-04-04T16:46:19.674Z,22.68
2019-04-04T16:47:19.665Z,22.73
2019-04-04T16:48:19.657Z,22.62
2019-04-04T16:49:19.641Z,22.62
2019-04-04T16:50:19.630Z,22.70
2019-04-04T16:51:19.618Z,22.64
2019-04-04T16:52:19.611Z,22.66
2019-04-04T16:53:19.598Z,22.68
2019-04-04T16:54:19.596Z,22.74
2019-04-04T16:55:19.582Z,22.67
2019-04-04T16:56:19.565Z,22.73
2019-04-04T16:57:19.554Z,22.77
2019-04-04T16:58:19.547Z,22.61
2019-04-04T16:59:19.532Z,22.67
2019-04-04T17:00:21.054Z,22.61
2019-04-04T17:01:19.511Z,22.76
2019-04-04T17:02:19.498Z,22.55
2019-04-04T17:03:19.487Z,22.59
2019-04-04T17:04:19.482Z,22.62
2019-04-04T17:05:19.472Z,22.52
2019-04-04T17:06:19.461Z,22.48
2019-04-04T17:07:19.444Z,22.40
2019-04-04T17:08:19.432Z,22.54
2019-04-04T17:09:19.421Z,22.47
2019-04-04T17:10:19.417Z,22.48
2019-04-04T17:11:19.405Z,22.43
2019-04-04T17:12:19.391Z,22.51
2019-04-04T17:13:19.383Z,22.42
2019-04-04T17:14:19.391Z,22.45
2019-04-04T17:15:19.353Z,22.48
2019-04-04T17:16:21.302Z,22.47
2019-04-04T17:17:19.332Z,22.43
2019-04-04T17:18:19.322Z,22.37
2019-04-04T17:19:19.311Z,22.42
2019-04-04T17:20:20.711Z,22.39
2019-04-04T17:21:19.293Z,22.39
2019-04-04T17:22:19.276Z,22.26
2019-04-04T17:23:19.269Z,22.33
2019-04-04T17:24:19.258Z,22.32
2019-04-04T17:25:19.244Z,22.35
2019-04-04T17:26:19.238Z,22.29
2019-04-04T17:27:19.222Z,22.29
2019-04-04T17:28:19.355Z,22.22
2019-04-04T17:29:19.204Z,22.27
2019-04-04T17:30:19.727Z,22.24
2019-04-04T17:31:19.248Z,22.17
2019-04-04T17:32:19.240Z,22.17
2019-04-04T17:33:19.683Z,22.15
2019-04-04T17:34:19.196Z,22.17
2019-04-04T17:35:19.144Z,22.24
2019-04-04T17:36:21.284Z,22.17
2019-04-04T17:37:19.109Z,22.17
2019-04-04T17:38:19.364Z,22.11
2019-04-04T17:39:19.085Z,22.11
2019-04-04T17:40:19.305Z,22.14
2019-04-04T17:41:19.071Z,22.17
2019-04-04T17:42:29.206Z,21.95
2019-04-04T17:43:43.907Z,22.03
2019-04-04T17:44:43.508Z,21.82
2019-04-04T17:45:43.897Z,21.87
2019-04-04T17:46:43.688Z,21.87
2019-04-04T17:47:43.480Z,21.81
2019-04-04T17:48:43.794Z,21.85
2019-04-04T17:49:43.450Z,21.75
2019-04-04T17:50:43.875Z,21.73
2019-04-04T17:51:43.435Z,21.75
2019-04-04T17:52:43.682Z,21.75
2019-04-04T17:53:43.464Z,21.73
2019-04-04T17:54:43.393Z,21.69
2019-04-04T17:55:43.857Z,21.65
2019-04-04T17:56:43.371Z,21.67
2019-04-04T17:57:43.361Z,21.71
2019-04-04T17:58:43.351Z,21.63
2019-04-04T17:59:43.337Z,21.71
2019-04-04T18:00:43.335Z,21.67
2019-04-04T18:01:43.317Z,21.63
2019-04-04T18:02:43.304Z,21.60
2019-04-04T18:03:43.295Z,21.65
2019-04-04T18:04:48.645Z,21.51
2019-04-04T18:05:43.271Z,21.58
2019-04-04T18:06:43.266Z,21.51
2019-04-04T18:07:43.246Z,21.55
2019-04-04T18:08:43.238Z,21.53
2019-04-04T18:09:45.454Z,21.53
2019-04-04T18:10:43.221Z,21.55
2019-04-04T18:11:43.204Z,21.41
2019-04-04T18:12:43.197Z,21.47
2019-04-04T18:13:43.200Z,21.55
2019-04-04T18:14:43.173Z,21.45
2019-04-04T18:15:43.157Z,21.47
2019-04-04T18:16:43.144Z,21.51
2019-04-04T18:17:43.136Z,21.38
2019-04-04T18:18:43.121Z,21.34
2019-04-04T18:19:43.132Z,21.41
2019-04-04T18:20:43.107Z,21.30
2019-04-04T18:21:43.088Z,21.29
2019-04-04T18:22:43.084Z,21.25
2019-04-04T18:23:43.066Z,21.29
2019-04-04T18:24:43.060Z,21.29
2019-04-04T18:25:43.045Z,21.20
2019-04-04T18:26:43.037Z,21.13
2019-04-04T18:27:43.019Z,21.09
2019-04-04T18:28:43.014Z,21.18
2019-04-04T18:29:43.004Z,21.09
2019-04-04T18:30:42.987Z,21.10
2019-04-04T18:32:42.967Z,21.07
2019-04-04T18:36:42.920Z,20.97
2019-04-04T18:37:42.911Z,20.85
2019-04-04T18:38:42.899Z,20.82
2019-04-04T18:39:42.946Z,20.91
2019-04-04T18:41:42.867Z,20.91
2019-04-04T18:42:52.671Z,20.88
2019-04-04T18:44:07.320Z,20.79
